createdAt,value
2022-12-01T00:00:02.337Z,901
2022-12-01T00:15:02.935Z,897
2022-12-01T00:30:02.952Z,894
2022-12-01T00:45:02.989Z,890
2022-12-01T01:00:03.048Z,888
2022-12-01T01:15:04.095Z,889
2022-12-01T01:30:05.948Z,892
2022-12-01T01:45:06.098Z,894
2022-12-01T02:00:06.237Z,893
2022-12-01T02:15:06.349Z,889
2022-12-01T02:30:03.880Z,883
2022-12-01T02:45:03.373Z,872
2022-12-01T03:00:03.371Z,862
2022-12-01T03:15:03.849Z,850
2022-12-01T03:30:04.211Z,840
2022-12-01T03:45:06.095Z,829
2022-12-01T04:00:02.230Z,821
2022-12-01T04:15:03.846Z,817
2022-12-01T04:30:04.318Z,819
2022-12-01T04:45:02.215Z,830
2022-12-01T05:00:01.856Z,847
2022-12-01T05:15:02.943Z,867
2022-12-01T05:30:03.976Z,897
2022-12-01T05:45:01.885Z,944
2022-12-01T06:00:04.115Z,996
2022-12-01T06:15:05.996Z,1056
2022-12-01T06:30:05.175Z,1113
2022-12-01T06:45:01.870Z,1151
2022-12-01T07:00:02.138Z,1157
2022-12-01T07:15:02.369Z,1156
2022-12-01T07:30:02.945Z,1128
2022-12-01T07:45:02.095Z,1087
2022-12-01T08:00:03.227Z,1045
2022-12-01T08:15:03.291Z,1011
2022-12-01T08:30:04.414Z,970
2022-12-01T08:45:05.288Z,943
2022-12-01T09:00:04.908Z,933
2022-12-01T09:15:03.248Z,923
2022-12-01T09:30:06.223Z,919
2022-12-01T09:45:02.359Z,922
2022-12-01T10:00:03.908Z,928
2022-12-01T10:15:04.408Z,921
2022-12-01T10:30:06.240Z,921
2022-12-01T10:45:04.372Z,907
2022-12-01T11:00:05.278Z,894
2022-12-01T11:15:05.074Z,888
2022-12-01T11:30:04.341Z,892
2022-12-01T11:45:06.292Z,900
2022-12-01T12:00:04.411Z,939
2022-12-01T12:15:06.370Z,976
2022-12-01T12:30:05.895Z,1009
2022-12-01T12:45:02.194Z,1053
2022-12-01T13:00:06.203Z,1085
2022-12-01T13:15:03.440Z,1095
2022-12-01T13:30:04.393Z,1116
2022-12-01T13:45:04.413Z,1133
2022-12-01T14:15:03.394Z,1125
2022-12-01T14:30:04.880Z,1091
2022-12-01T14:45:02.196Z,1029
2022-12-01T15:00:02.848Z,948
2022-12-01T15:15:02.918Z,849
2022-12-01T15:30:01.966Z,763
2022-12-01T15:45:04.201Z,686
2022-12-01T16:00:05.079Z,653
2022-12-01T16:15:03.818Z,652
2022-12-01T16:30:04.303Z,682
2022-12-01T16:45:04.211Z,742
2022-12-01T17:00:05.102Z,821
2022-12-01T17:15:01.838Z,875
2022-12-01T17:30:03.067Z,919
2022-12-01T17:45:06.185Z,952
2022-12-01T18:00:06.244Z,985
2022-12-01T18:15:05.389Z,1001
2022-12-01T18:30:05.142Z,1025
2022-12-01T18:45:04.914Z,1052
2022-12-01T19:00:02.144Z,1077
2022-12-01T19:15:04.343Z,1089
2022-12-01T19:30:06.269Z,1103
2022-12-01T19:45:02.563Z,1100
2022-12-01T20:00:04.969Z,1090
2022-12-01T20:30:01.960Z,1053
2022-12-01T20:45:05.321Z,1018
2022-12-01T21:00:03.944Z,988
2022-12-01T21:15:03.886Z,966
2022-12-01T21:30:02.389Z,925
2022-12-01T21:45:02.911Z,918
2022-12-01T22:00:02.936Z,913
2022-12-01T22:15:05.047Z,905
2022-12-01T22:30:02.253Z,882
2022-12-01T22:45:05.910Z,861
2022-12-01T23:00:02.019Z,841
2022-12-01T23:15:03.174Z,824
2022-12-01T23:30:06.205Z,810
2022-12-01T23:45:05.366Z,801
